sensor_id;sensor_type;location;lat;lon;timestamp;temperature;humidity
39067;DHT22;24821;51.988;6.020;2022-07-05T00:01:03;16.80;90.30
39067;DHT22;24821;51.988;6.020;2022-07-05T00:03:29;16.70;90.30
39067;DHT22;24821;51.988;6.020;2022-07-05T00:05:55;16.60;90.50
39067;DHT22;24821;51.988;6.020;2022-07-05T00:08:21;16.60;90.70
39067;DHT22;24821;51.988;6.020;2022-07-05T00:10:46;16.60;90.70
39067;DHT22;24821;51.988;6.020;2022-07-05T00:13:13;16.50;91.10
39067;DHT22;24821;51.988;6.020;2022-07-05T00:15:38;16.50;90.90
39067;DHT22;24821;51.988;6.020;2022-07-05T00:18:05;16.50;91.00
39067;DHT22;24821;51.988;6.020;2022-07-05T00:20:30;16.40;91.20
39067;DHT22;24821;51.988;6.020;2022-07-05T00:22:56;16.40;91.30
39067;DHT22;24821;51.988;6.020;2022-07-05T00:25:22;16.40;91.30
39067;DHT22;24821;51.988;6.020;2022-07-05T00:27:47;16.40;91.50
39067;DHT22;24821;51.988;6.020;2022-07-05T00:30:13;16.30;91.60
39067;DHT22;24821;51.988;6.020;2022-07-05T00:32:39;16.30;91.70
39067;DHT22;24821;51.988;6.020;2022-07-05T00:35:05;16.30;91.90
39067;DHT22;24821;51.988;6.020;2022-07-05T00:37:31;16.30;92.00
39067;DHT22;24821;51.988;6.020;2022-07-05T00:39:57;16.20;92.10
39067;DHT22;24821;51.988;6.020;2022-07-05T00:42:22;16.20;92.20
39067;DHT22;24821;51.988;6.020;2022-07-05T00:44:48;16.10;92.20
39067;DHT22;24821;51.988;6.020;2022-07-05T00:47:14;16.00;92.30
39067;DHT22;24821;51.988;6.020;2022-07-05T00:49:41;16.00;92.50
39067;DHT22;24821;51.988;6.020;2022-07-05T00:52:07;16.00;92.60
39067;DHT22;24821;51.988;6.020;2022-07-05T00:54:35;16.00;92.80
39067;DHT22;24821;51.988;6.020;2022-07-05T00:57:01;15.90;92.90
39067;DHT22;24821;51.988;6.020;2022-07-05T00:59:28;15.90;93.00
39067;DHT22;24821;51.988;6.020;2022-07-05T01:01:54;15.90;93.00
39067;DHT22;24821;51.988;6.020;2022-07-05T01:04:20;15.90;93.10
39067;DHT22;24821;51.988;6.020;2022-07-05T01:06:47;15.80;93.10
39067;DHT22;24821;51.988;6.020;2022-07-05T01:09:15;15.80;93.10
39067;DHT22;24821;51.988;6.020;2022-07-05T01:11:46;15.80;93.20
39067;DHT22;24821;51.988;6.020;2022-07-05T01:14:20;15.70;93.70
39067;DHT22;24821;51.988;6.020;2022-07-05T01:16:46;15.70;93.50
39067;DHT22;24821;51.988;6.020;2022-07-05T01:19:12;15.60;93.60
39067;DHT22;24821;51.988;6.020;2022-07-05T01:21:45;15.50;93.80
39067;DHT22;24821;51.988;6.020;2022-07-05T01:24:13;15.50;93.90
39067;DHT22;24821;51.988;6.020;2022-07-05T01:26:40;15.40;94.00
39067;DHT22;24821;51.988;6.020;2022-07-05T01:29:07;15.40;94.20
39067;DHT22;24821;51.988;6.020;2022-07-05T01:31:36;15.40;94.30
39067;DHT22;24821;51.988;6.020;2022-07-05T01:34:02;15.40;94.60
39067;DHT22;24821;51.988;6.020;2022-07-05T01:36:27;15.30;94.70
39067;DHT22;24821;51.988;6.020;2022-07-05T01:38:53;15.40;95.00
39067;DHT22;24821;51.988;6.020;2022-07-05T01:41:19;15.30;95.00
39067;DHT22;24821;51.988;6.020;2022-07-05T01:43:44;15.30;95.00
39067;DHT22;24821;51.988;6.020;2022-07-05T01:46:10;15.20;95.10
39067;DHT22;24821;51.988;6.020;2022-07-05T01:48:38;15.20;95.20
39067;DHT22;24821;51.988;6.020;2022-07-05T01:53:44;15.10;95.40
39067;DHT22;24821;51.988;6.020;2022-07-05T01:56:09;15.00;95.60
39067;DHT22;24821;51.988;6.020;2022-07-05T01:58:35;15.00;95.70
39067;DHT22;24821;51.988;6.020;2022-07-05T02:01:01;15.00;95.90
39067;DHT22;24821;51.988;6.020;2022-07-05T02:03:27;15.00;95.90
39067;DHT22;24821;51.988;6.020;2022-07-05T02:05:53;14.90;96.00
39067;DHT22;24821;51.988;6.020;2022-07-05T02:08:19;14.90;96.10
39067;DHT22;24821;51.988;6.020;2022-07-05T02:10:45;14.80;96.30
39067;DHT22;24821;51.988;6.020;2022-07-05T02:13:11;14.80;96.40
39067;DHT22;24821;51.988;6.020;2022-07-05T02:15:39;14.70;96.50
39067;DHT22;24821;51.988;6.020;2022-07-05T02:18:06;14.70;96.50
39067;DHT22;24821;51.988;6.020;2022-07-05T02:20:33;14.70;96.70
39067;DHT22;24821;51.988;6.020;2022-07-05T02:23:00;14.60;96.70
39067;DHT22;24821;51.988;6.020;2022-07-05T02:25:26;14.60;96.70
39067;DHT22;24821;51.988;6.020;2022-07-05T02:27:52;14.60;96.70
39067;DHT22;24821;51.988;6.020;2022-07-05T02:30:19;14.60;96.80
39067;DHT22;24821;51.988;6.020;2022-07-05T02:32:44;14.60;96.90
39067;DHT22;24821;51.988;6.020;2022-07-05T02:35:10;14.60;97.00
39067;DHT22;24821;51.988;6.020;2022-07-05T02:37:37;14.60;97.00
39067;DHT22;24821;51.988;6.020;2022-07-05T02:40:05;14.60;97.00
39067;DHT22;24821;51.988;6.020;2022-07-05T02:42:32;14.60;97.10
39067;DHT22;24821;51.988;6.020;2022-07-05T02:44:57;14.60;97.20
39067;DHT22;24821;51.988;6.020;2022-07-05T02:47:23;14.50;97.20
39067;DHT22;24821;51.988;6.020;2022-07-05T02:49:48;14.50;97.30
39067;DHT22;24821;51.988;6.020;2022-07-05T02:52:14;14.50;97.40
39067;DHT22;24821;51.988;6.020;2022-07-05T02:54:39;14.50;97.50
39067;DHT22;24821;51.988;6.020;2022-07-05T02:57:05;14.40;97.60
39067;DHT22;24821;51.988;6.020;2022-07-05T02:59:31;14.40;97.60
39067;DHT22;24821;51.988;6.020;2022-07-05T03:01:57;14.40;97.70
39067;DHT22;24821;51.988;6.020;2022-07-05T03:04:22;14.40;97.70
39067;DHT22;24821;51.988;6.020;2022-07-05T03:06:48;14.50;97.80
39067;DHT22;24821;51.988;6.020;2022-07-05T03:09:14;14.50;97.90
39067;DHT22;24821;51.988;6.020;2022-07-05T03:11:39;14.60;98.00
39067;DHT22;24821;51.988;6.020;2022-07-05T03:14:05;14.60;98.00
39067;DHT22;24821;51.988;6.020;2022-07-05T03:16:30;14.60;98.00
39067;DHT22;24821;51.988;6.020;2022-07-05T03:18:56;14.60;98.10
39067;DHT22;24821;51.988;6.020;2022-07-05T03:21:22;14.60;98.20
39067;DHT22;24821;51.988;6.020;2022-07-05T03:23:47;14.60;98.20
39067;DHT22;24821;51.988;6.020;2022-07-05T03:26:13;14.60;98.20
39067;DHT22;24821;51.988;6.020;2022-07-05T03:28:38;14.60;98.10
39067;DHT22;24821;51.988;6.020;2022-07-05T03:31:04;14.70;98.20
39067;DHT22;24821;51.988;6.020;2022-07-05T03:33:29;14.60;98.30
39067;DHT22;24821;51.988;6.020;2022-07-05T03:35:55;14.70;98.40
39067;DHT22;24821;51.988;6.020;2022-07-05T03:38:21;14.70;98.40
39067;DHT22;24821;51.988;6.020;2022-07-05T03:40:46;14.70;98.40
39067;DHT22;24821;51.988;6.020;2022-07-05T03:43:12;14.80;98.40
39067;DHT22;24821;51.988;6.020;2022-07-05T03:45:38;14.80;98.40
39067;DHT22;24821;51.988;6.020;2022-07-05T03:48:04;14.90;98.50
39067;DHT22;24821;51.988;6.020;2022-07-05T03:50:29;14.90;98.40
39067;DHT22;24821;51.988;6.020;2022-07-05T03:52:55;14.90;98.40
39067;DHT22;24821;51.988;6.020;2022-07-05T03:55:20;15.00;98.50
39067;DHT22;24821;51.988;6.020;2022-07-05T03:57:46;15.00;98.50
39067;DHT22;24821;51.988;6.020;2022-07-05T04:00:13;15.00;98.50
39067;DHT22;24821;51.988;6.020;2022-07-05T04:02:38;15.00;98.60
39067;DHT22;24821;51.988;6.020;2022-07-05T04:05:05;15.10;98.70
39067;DHT22;24821;51.988;6.020;2022-07-05T04:07:30;15.10;98.70
39067;DHT22;24821;51.988;6.020;2022-07-05T04:09:56;15.20;98.70
39067;DHT22;24821;51.988;6.020;2022-07-05T04:12:22;15.20;98.70
39067;DHT22;24821;51.988;6.020;2022-07-05T04:14:47;15.30;98.70
39067;DHT22;24821;51.988;6.020;2022-07-05T04:17:13;15.30;98.80
39067;DHT22;24821;51.988;6.020;2022-07-05T04:19:38;15.30;98.70
39067;DHT22;24821;51.988;6.020;2022-07-05T04:22:04;15.40;98.80
39067;DHT22;24821;51.988;6.020;2022-07-05T04:24:30;15.40;99.10
39067;DHT22;24821;51.988;6.020;2022-07-05T04:26:56;15.40;98.90
39067;DHT22;24821;51.988;6.020;2022-07-05T04:29:21;15.50;99.00
39067;DHT22;24821;51.988;6.020;2022-07-05T04:31:47;15.60;99.30
39067;DHT22;24821;51.988;6.020;2022-07-05T04:34:12;15.70;99.10
39067;DHT22;24821;51.988;6.020;2022-07-05T04:36:38;15.60;99.10
39067;DHT22;24821;51.988;6.020;2022-07-05T04:39:07;15.70;99.10
39067;DHT22;24821;51.988;6.020;2022-07-05T04:41:33;15.70;99.10
39067;DHT22;24821;51.988;6.020;2022-07-05T04:43:59;15.80;99.10
39067;DHT22;24821;51.988;6.020;2022-07-05T04:46:24;15.80;99.00
39067;DHT22;24821;51.988;6.020;2022-07-05T04:48:50;15.90;99.10
39067;DHT22;24821;51.988;6.020;2022-07-05T04:51:16;16.00;99.10
39067;DHT22;24821;51.988;6.020;2022-07-05T04:53:42;16.00;99.10
39067;DHT22;24821;51.988;6.020;2022-07-05T04:56:07;16.10;99.00
39067;DHT22;24821;51.988;6.020;2022-07-05T04:58:33;16.10;99.10
39067;DHT22;24821;51.988;6.020;2022-07-05T05:00:59;16.20;99.10
39067;DHT22;24821;51.988;6.020;2022-07-05T05:03:25;16.20;99.10
39067;DHT22;24821;51.988;6.020;2022-07-05T05:05:50;16.30;99.10
39067;DHT22;24821;51.988;6.020;2022-07-05T05:08:16;16.30;99.10
39067;DHT22;24821;51.988;6.020;2022-07-05T05:10:42;16.40;99.00
39067;DHT22;24821;51.988;6.020;2022-07-05T05:13:07;16.40;99.00
39067;DHT22;24821;51.988;6.020;2022-07-05T05:15:33;16.50;99.00
39067;DHT22;24821;51.988;6.020;2022-07-05T05:17:58;16.50;98.90
39067;DHT22;24821;51.988;6.020;2022-07-05T05:20:24;16.60;98.70
39067;DHT22;24821;51.988;6.020;2022-07-05T05:22:49;16.60;98.70
39067;DHT22;24821;51.988;6.020;2022-07-05T05:25:15;16.70;98.80
39067;DHT22;24821;51.988;6.020;2022-07-05T05:27:46;16.80;98.80
39067;DHT22;24821;51.988;6.020;2022-07-05T05:30:12;16.90;98.70
39067;DHT22;24821;51.988;6.020;2022-07-05T05:32:38;17.00;98.70
39067;DHT22;24821;51.988;6.020;2022-07-05T05:35:04;17.20;98.70
39067;DHT22;24821;51.988;6.020;2022-07-05T05:37:30;17.30;98.80
39067;DHT22;24821;51.988;6.020;2022-07-05T05:39:56;17.40;98.70
39067;DHT22;24821;51.988;6.020;2022-07-05T05:42:21;17.40;98.70
39067;DHT22;24821;51.988;6.020;2022-07-05T05:44:47;17.50;98.70
39067;DHT22;24821;51.988;6.020;2022-07-05T05:47:13;17.60;98.60
39067;DHT22;24821;51.988;6.020;2022-07-05T05:49:38;17.70;98.60
39067;DHT22;24821;51.988;6.020;2022-07-05T05:52:04;17.80;98.60
39067;DHT22;24821;51.988;6.020;2022-07-05T05:54:29;17.90;98.60
39067;DHT22;24821;51.988;6.020;2022-07-05T05:56:55;18.00;98.20
39067;DHT22;24821;51.988;6.020;2022-07-05T05:59:20;18.20;98.00
39067;DHT22;24821;51.988;6.020;2022-07-05T06:01:46;18.30;97.70
39067;DHT22;24821;51.988;6.020;2022-07-05T06:04:11;18.40;97.50
39067;DHT22;24821;51.988;6.020;2022-07-05T06:06:37;18.50;97.30
39067;DHT22;24821;51.988;6.020;2022-07-05T06:09:03;18.60;96.90
39067;DHT22;24821;51.988;6.020;2022-07-05T06:11:28;18.70;96.40
39067;DHT22;24821;51.988;6.020;2022-07-05T06:13:54;18.80;96.20
39067;DHT22;24821;51.988;6.020;2022-07-05T06:16:19;18.90;95.60
39067;DHT22;24821;51.988;6.020;2022-07-05T06:18:45;19.00;95.70
39067;DHT22;24821;51.988;6.020;2022-07-05T06:21:10;19.10;95.40
39067;DHT22;24821;51.988;6.020;2022-07-05T06:23:36;19.30;95.50
39067;DHT22;24821;51.988;6.020;2022-07-05T06:26:01;19.40;94.70
39067;DHT22;24821;51.988;6.020;2022-07-05T06:28:27;19.50;94.80
39067;DHT22;24821;51.988;6.020;2022-07-05T06:30:52;19.50;94.10
39067;DHT22;24821;51.988;6.020;2022-07-05T06:33:19;19.60;93.90
39067;DHT22;24821;51.988;6.020;2022-07-05T06:35:45;19.60;93.80
39067;DHT22;24821;51.988;6.020;2022-07-05T06:38:10;19.60;93.80
39067;DHT22;24821;51.988;6.020;2022-07-05T06:40:38;19.70;93.60
39067;DHT22;24821;51.988;6.020;2022-07-05T06:43:06;19.80;93.30
39067;DHT22;24821;51.988;6.020;2022-07-05T06:45:32;19.90;92.80
39067;DHT22;24821;51.988;6.020;2022-07-05T06:48:02;20.00;92.70
39067;DHT22;24821;51.988;6.020;2022-07-05T06:50:29;20.20;92.50
39067;DHT22;24821;51.988;6.020;2022-07-05T06:52:55;20.30;92.40
39067;DHT22;24821;51.988;6.020;2022-07-05T06:55:21;20.40;91.90
39067;DHT22;24821;51.988;6.020;2022-07-05T06:57:48;20.50;91.90
39067;DHT22;24821;51.988;6.020;2022-07-05T07:00:14;20.50;91.60
39067;DHT22;24821;51.988;6.020;2022-07-05T07:02:40;20.40;91.60
39067;DHT22;24821;51.988;6.020;2022-07-05T07:05:07;20.40;91.90
39067;DHT22;24821;51.988;6.020;2022-07-05T07:07:33;20.50;92.10
39067;DHT22;24821;51.988;6.020;2022-07-05T07:10:17;20.70;92.20
39067;DHT22;24821;51.988;6.020;2022-07-05T07:12:43;20.80;92.00
39067;DHT22;24821;51.988;6.020;2022-07-05T07:15:09;20.70;91.70
39067;DHT22;24821;51.988;6.020;2022-07-05T07:17:34;20.80;91.50
39067;DHT22;24821;51.988;6.020;2022-07-05T07:20:00;20.80;91.60
39067;DHT22;24821;51.988;6.020;2022-07-05T07:22:25;20.90;91.60
39067;DHT22;24821;51.988;6.020;2022-07-05T07:24:51;20.90;91.20
39067;DHT22;24821;51.988;6.020;2022-07-05T07:27:18;21.00;91.10
39067;DHT22;24821;51.988;6.020;2022-07-05T07:29:43;21.30;91.20
39067;DHT22;24821;51.988;6.020;2022-07-05T07:32:09;21.60;90.20
39067;DHT22;24821;51.988;6.020;2022-07-05T07:34:35;22.00;89.40
39067;DHT22;24821;51.988;6.020;2022-07-05T07:37:03;22.20;87.00
39067;DHT22;24821;51.988;6.020;2022-07-05T07:39:28;22.40;85.00
39067;DHT22;24821;51.988;6.020;2022-07-05T07:41:54;22.50;84.30
39067;DHT22;24821;51.988;6.020;2022-07-05T07:44:20;22.70;85.70
39067;DHT22;24821;51.988;6.020;2022-07-05T07:46:46;23.10;84.20
39067;DHT22;24821;51.988;6.020;2022-07-05T07:49:12;23.50;81.60
39067;DHT22;24821;51.988;6.020;2022-07-05T07:51:38;23.90;82.10
39067;DHT22;24821;51.988;6.020;2022-07-05T07:54:04;24.30;80.90
39067;DHT22;24821;51.988;6.020;2022-07-05T07:56:30;24.70;79.50
39067;DHT22;24821;51.988;6.020;2022-07-05T07:58:56;25.20;79.50
39067;DHT22;24821;51.988;6.020;2022-07-05T08:01:22;25.50;78.80
39067;DHT22;24821;51.988;6.020;2022-07-05T08:03:47;25.50;74.90
39067;DHT22;24821;51.988;6.020;2022-07-05T08:06:13;25.30;74.00
39067;DHT22;24821;51.988;6.020;2022-07-05T08:08:40;25.10;74.90
39067;DHT22;24821;51.988;6.020;2022-07-05T08:11:08;24.90;73.10
39067;DHT22;24821;51.988;6.020;2022-07-05T08:13:34;24.70;73.90
39067;DHT22;24821;51.988;6.020;2022-07-05T08:16:00;24.70;73.20
39067;DHT22;24821;51.988;6.020;2022-07-05T08:18:26;24.70;73.40
39067;DHT22;24821;51.988;6.020;2022-07-05T08:21:10;24.80;73.40
39067;DHT22;24821;51.988;6.020;2022-07-05T08:23:56;24.80;73.10
39067;DHT22;24821;51.988;6.020;2022-07-05T08:26:22;24.80;72.70
39067;DHT22;24821;51.988;6.020;2022-07-05T08:28:47;24.90;72.90
39067;DHT22;24821;51.988;6.020;2022-07-05T08:31:14;24.90;73.00
39067;DHT22;24821;51.988;6.020;2022-07-05T08:33:39;24.80;72.00
39067;DHT22;24821;51.988;6.020;2022-07-05T08:36:05;24.60;71.20
39067;DHT22;24821;51.988;6.020;2022-07-05T08:38:31;24.60;72.30
39067;DHT22;24821;51.988;6.020;2022-07-05T08:40:57;24.80;73.20
39067;DHT22;24821;51.988;6.020;2022-07-05T08:43:24;24.70;70.80
39067;DHT22;24821;51.988;6.020;2022-07-05T08:45:52;24.60;71.70
39067;DHT22;24821;51.988;6.020;2022-07-05T08:48:19;24.40;71.40
39067;DHT22;24821;51.988;6.020;2022-07-05T08:50:45;24.30;72.00
39067;DHT22;24821;51.988;6.020;2022-07-05T08:53:14;24.30;72.00
39067;DHT22;24821;51.988;6.020;2022-07-05T08:55:41;24.20;72.00
39067;DHT22;24821;51.988;6.020;2022-07-05T08:58:06;24.20;70.30
39067;DHT22;24821;51.988;6.020;2022-07-05T09:00:32;24.10;72.30
39067;DHT22;24821;51.988;6.020;2022-07-05T09:02:58;24.10;72.80
39067;DHT22;24821;51.988;6.020;2022-07-05T09:05:25;24.10;72.20
39067;DHT22;24821;51.988;6.020;2022-07-05T09:08:01;24.10;73.40
39067;DHT22;24821;51.988;6.020;2022-07-05T09:10:28;24.20;73.90
39067;DHT22;24821;51.988;6.020;2022-07-05T09:12:55;24.30;73.50
39067;DHT22;24821;51.988;6.020;2022-07-05T09:15:21;24.70;74.50
39067;DHT22;24821;51.988;6.020;2022-07-05T09:17:47;25.00;74.40
39067;DHT22;24821;51.988;6.020;2022-07-05T09:20:14;25.20;74.10
39067;DHT22;24821;51.988;6.020;2022-07-05T09:22:54;25.50;72.80
39067;DHT22;24821;51.988;6.020;2022-07-05T09:25:23;25.90;70.40
39067;DHT22;24821;51.988;6.020;2022-07-05T09:30:26;26.60;70.60
39067;DHT22;24821;51.988;6.020;2022-07-05T09:33:13;26.70;65.00
39067;DHT22;24821;51.988;6.020;2022-07-05T09:35:43;26.60;66.10
39067;DHT22;24821;51.988;6.020;2022-07-05T09:38:19;26.80;60.90
39067;DHT22;24821;51.988;6.020;2022-07-05T09:43:26;26.90;63.70
39067;DHT22;24821;51.988;6.020;2022-07-05T09:46:00;27.00;64.50
39067;DHT22;24821;51.988;6.020;2022-07-05T09:48:27;27.20;63.60
39067;DHT22;24821;51.988;6.020;2022-07-05T09:51:10;27.10;62.80
39067;DHT22;24821;51.988;6.020;2022-07-05T09:53:45;26.70;63.00
39067;DHT22;24821;51.988;6.020;2022-07-05T09:56:12;26.10;63.10
39067;DHT22;24821;51.988;6.020;2022-07-05T09:58:37;25.60;64.00
39067;DHT22;24821;51.988;6.020;2022-07-05T10:01:23;25.20;63.50
39067;DHT22;24821;51.988;6.020;2022-07-05T10:03:56;24.90;64.40
39067;DHT22;24821;51.988;6.020;2022-07-05T10:06:24;24.50;64.70
39067;DHT22;24821;51.988;6.020;2022-07-05T10:08:50;24.30;65.00
39067;DHT22;24821;51.988;6.020;2022-07-05T10:11:17;24.10;65.80
39067;DHT22;24821;51.988;6.020;2022-07-05T10:13:47;23.80;66.20
39067;DHT22;24821;51.988;6.020;2022-07-05T10:16:17;23.60;68.80
39067;DHT22;24821;51.988;6.020;2022-07-05T10:18:44;23.40;70.40
39067;DHT22;24821;51.988;6.020;2022-07-05T10:21:14;23.40;72.50
39067;DHT22;24821;51.988;6.020;2022-07-05T10:23:51;23.40;73.70
39067;DHT22;24821;51.988;6.020;2022-07-05T10:26:19;23.60;75.40
39067;DHT22;24821;51.988;6.020;2022-07-05T10:28:47;24.10;73.70
39067;DHT22;24821;51.988;6.020;2022-07-05T10:31:15;24.70;72.40
39067;DHT22;24821;51.988;6.020;2022-07-05T10:33:41;25.10;69.80
39067;DHT22;24821;51.988;6.020;2022-07-05T10:36:09;25.50;70.10
39067;DHT22;24821;51.988;6.020;2022-07-05T10:38:38;25.70;68.10
39067;DHT22;24821;51.988;6.020;2022-07-05T10:41:06;26.10;69.40
39067;DHT22;24821;51.988;6.020;2022-07-05T10:43:32;26.20;66.90
39067;DHT22;24821;51.988;6.020;2022-07-05T10:45:58;26.40;65.80
39067;DHT22;24821;51.988;6.020;2022-07-05T10:48:26;26.10;63.80
39067;DHT22;24821;51.988;6.020;2022-07-05T10:50:59;25.80;66.20
39067;DHT22;24821;51.988;6.020;2022-07-05T10:53:29;25.80;66.70
39067;DHT22;24821;51.988;6.020;2022-07-05T10:56:12;26.00;66.90
39067;DHT22;24821;51.988;6.020;2022-07-05T11:06:29;25.80;64.50
39067;DHT22;24821;51.988;6.020;2022-07-05T11:14:04;24.90;67.30
39067;DHT22;24821;51.988;6.020;2022-07-05T11:16:36;24.90;67.70
39067;DHT22;24821;51.988;6.020;2022-07-05T11:19:09;25.00;66.10
39067;DHT22;24821;51.988;6.020;2022-07-05T11:21:36;25.30;65.70
39067;DHT22;24821;51.988;6.020;2022-07-05T11:24:31;25.50;66.90
39067;DHT22;24821;51.988;6.020;2022-07-05T11:26:58;25.80;66.90
39067;DHT22;24821;51.988;6.020;2022-07-05T11:29:43;25.80;65.50
39067;DHT22;24821;51.988;6.020;2022-07-05T11:32:23;25.80;68.70
39067;DHT22;24821;51.988;6.020;2022-07-05T11:34:50;25.90;67.60
39067;DHT22;24821;51.988;6.020;2022-07-05T11:39:45;26.10;66.10
39067;DHT22;24821;51.988;6.020;2022-07-05T11:42:19;25.80;65.80
39067;DHT22;24821;51.988;6.020;2022-07-05T11:44:49;25.50;65.70
39067;DHT22;24821;51.988;6.020;2022-07-05T11:47:16;25.40;65.60
39067;DHT22;24821;51.988;6.020;2022-07-05T11:49:45;25.20;66.10
39067;DHT22;24821;51.988;6.020;2022-07-05T11:52:17;24.90;66.90
39067;DHT22;24821;51.988;6.020;2022-07-05T11:54:49;24.50;67.90
39067;DHT22;24821;51.988;6.020;2022-07-05T11:57:15;24.30;68.30
39067;DHT22;24821;51.988;6.020;2022-07-05T11:59:40;24.30;68.80
39067;DHT22;24821;51.988;6.020;2022-07-05T12:02:06;24.40;70.30
39067;DHT22;24821;51.988;6.020;2022-07-05T12:04:31;24.60;68.40
39067;DHT22;24821;51.988;6.020;2022-07-05T12:06:57;24.60;65.80
39067;DHT22;24821;51.988;6.020;2022-07-05T12:09:30;24.70;67.00
39067;DHT22;24821;51.988;6.020;2022-07-05T12:12:24;24.60;65.00
39067;DHT22;24821;51.988;6.020;2022-07-05T12:15:13;24.50;65.20
39067;DHT22;24821;51.988;6.020;2022-07-05T12:17:41;24.50;65.60
39067;DHT22;24821;51.988;6.020;2022-07-05T12:20:09;24.60;66.30
39067;DHT22;24821;51.988;6.020;2022-07-05T12:22:41;24.70;65.50
39067;DHT22;24821;51.988;6.020;2022-07-05T12:25:10;24.70;64.90
39067;DHT22;24821;51.988;6.020;2022-07-05T12:27:39;24.60;64.50
39067;DHT22;24821;51.988;6.020;2022-07-05T12:30:05;24.50;65.10
39067;DHT22;24821;51.988;6.020;2022-07-05T12:32:32;24.70;66.00
39067;DHT22;24821;51.988;6.020;2022-07-05T12:34:58;24.90;65.00
39067;DHT22;24821;51.988;6.020;2022-07-05T12:37:25;25.00;64.90
39067;DHT22;24821;51.988;6.020;2022-07-05T12:40:06;25.30;66.20
39067;DHT22;24821;51.988;6.020;2022-07-05T12:42:38;25.70;65.40
39067;DHT22;24821;51.988;6.020;2022-07-05T12:45:12;25.90;64.90
39067;DHT22;24821;51.988;6.020;2022-07-05T12:47:50;26.20;63.20
39067;DHT22;24821;51.988;6.020;2022-07-05T12:50:16;26.10;62.10
39067;DHT22;24821;51.988;6.020;2022-07-05T12:53:02;26.10;62.40
39067;DHT22;24821;51.988;6.020;2022-07-05T12:55:46;26.20;61.60
39067;DHT22;24821;51.988;6.020;2022-07-05T12:58:31;26.20;61.60
39067;DHT22;24821;51.988;6.020;2022-07-05T13:00:56;25.90;61.10
39067;DHT22;24821;51.988;6.020;2022-07-05T13:03:22;25.60;61.70
39067;DHT22;24821;51.988;6.020;2022-07-05T13:06:00;25.40;61.80
39067;DHT22;24821;51.988;6.020;2022-07-05T13:08:28;25.20;63.10
39067;DHT22;24821;51.988;6.020;2022-07-05T13:10:54;25.30;63.30
39067;DHT22;24821;51.988;6.020;2022-07-05T13:13:19;25.40;63.60
39067;DHT22;24821;51.988;6.020;2022-07-05T13:15:45;25.30;62.80
39067;DHT22;24821;51.988;6.020;2022-07-05T13:18:11;25.20;63.10
39067;DHT22;24821;51.988;6.020;2022-07-05T13:20:36;25.00;63.10
39067;DHT22;24821;51.988;6.020;2022-07-05T13:23:02;24.90;63.90
39067;DHT22;24821;51.988;6.020;2022-07-05T13:25:30;24.80;63.90
39067;DHT22;24821;51.988;6.020;2022-07-05T13:27:56;24.80;64.30
39067;DHT22;24821;51.988;6.020;2022-07-05T13:30:23;24.90;64.70
39067;DHT22;24821;51.988;6.020;2022-07-05T13:32:48;25.00;64.40
39067;DHT22;24821;51.988;6.020;2022-07-05T13:35:14;25.00;64.00
39067;DHT22;24821;51.988;6.020;2022-07-05T13:37:39;25.00;64.10
39067;DHT22;24821;51.988;6.020;2022-07-05T13:40:05;24.90;63.50
39067;DHT22;24821;51.988;6.020;2022-07-05T13:42:31;24.70;64.00
39067;DHT22;24821;51.988;6.020;2022-07-05T13:44:57;24.50;64.20
39067;DHT22;24821;51.988;6.020;2022-07-05T13:47:22;24.50;65.00
39067;DHT22;24821;51.988;6.020;2022-07-05T13:49:48;24.50;64.20
39067;DHT22;24821;51.988;6.020;2022-07-05T13:52:13;24.60;64.00
39067;DHT22;24821;51.988;6.020;2022-07-05T13:54:39;24.60;63.10
39067;DHT22;24821;51.988;6.020;2022-07-05T13:57:07;24.50;63.60
39067;DHT22;24821;51.988;6.020;2022-07-05T13:59:32;24.30;62.90
39067;DHT22;24821;51.988;6.020;2022-07-05T14:01:58;24.20;64.00
39067;DHT22;24821;51.988;6.020;2022-07-05T14:04:24;24.10;64.00
39067;DHT22;24821;51.988;6.020;2022-07-05T14:06:52;24.10;63.30
39067;DHT22;24821;51.988;6.020;2022-07-05T14:09:18;24.10;64.40
39067;DHT22;24821;51.988;6.020;2022-07-05T14:11:44;24.20;64.60
39067;DHT22;24821;51.988;6.020;2022-07-05T14:14:09;24.40;63.70
39067;DHT22;24821;51.988;6.020;2022-07-05T14:16:38;24.60;64.20
39067;DHT22;24821;51.988;6.020;2022-07-05T14:19:03;24.70;62.90
39067;DHT22;24821;51.988;6.020;2022-07-05T14:21:29;24.70;62.20
39067;DHT22;24821;51.988;6.020;2022-07-05T14:23:54;24.70;63.00
39067;DHT22;24821;51.988;6.020;2022-07-05T14:26:20;24.70;61.90
39067;DHT22;24821;51.988;6.020;2022-07-05T14:28:45;24.50;61.90
39067;DHT22;24821;51.988;6.020;2022-07-05T14:31:11;24.50;62.30
39067;DHT22;24821;51.988;6.020;2022-07-05T14:33:37;24.60;62.80
39067;DHT22;24821;51.988;6.020;2022-07-05T14:36:05;24.50;62.00
39067;DHT22;24821;51.988;6.020;2022-07-05T14:38:31;24.40;62.00
39067;DHT22;24821;51.988;6.020;2022-07-05T14:40:56;24.30;61.90
39067;DHT22;24821;51.988;6.020;2022-07-05T14:43:22;24.30;62.20
39067;DHT22;24821;51.988;6.020;2022-07-05T14:45:47;24.40;62.40
39067;DHT22;24821;51.988;6.020;2022-07-05T14:48:13;24.40;62.70
39067;DHT22;24821;51.988;6.020;2022-07-05T14:50:38;24.30;62.60
39067;DHT22;24821;51.988;6.020;2022-07-05T14:53:04;24.20;62.50
39067;DHT22;24821;51.988;6.020;2022-07-05T14:55:34;24.30;63.10
39067;DHT22;24821;51.988;6.020;2022-07-05T14:58:00;24.40;62.90
39067;DHT22;24821;51.988;6.020;2022-07-05T15:00:26;24.30;63.30
39067;DHT22;24821;51.988;6.020;2022-07-05T15:02:51;24.30;63.20
39067;DHT22;24821;51.988;6.020;2022-07-05T15:05:17;24.30;63.70
39067;DHT22;24821;51.988;6.020;2022-07-05T15:07:42;24.30;64.00
39067;DHT22;24821;51.988;6.020;2022-07-05T15:10:09;24.40;63.50
39067;DHT22;24821;51.988;6.020;2022-07-05T15:12:35;24.40;62.80
39067;DHT22;24821;51.988;6.020;2022-07-05T15:15:00;24.50;62.20
39067;DHT22;24821;51.988;6.020;2022-07-05T15:17:26;24.70;62.50
39067;DHT22;24821;51.988;6.020;2022-07-05T15:19:52;24.70;61.40
39067;DHT22;24821;51.988;6.020;2022-07-05T15:22:18;24.50;61.70
39067;DHT22;24821;51.988;6.020;2022-07-05T15:24:43;24.30;61.90
39067;DHT22;24821;51.988;6.020;2022-07-05T15:27:09;24.30;61.30
39067;DHT22;24821;51.988;6.020;2022-07-05T15:29:35;24.40;60.80
39067;DHT22;24821;51.988;6.020;2022-07-05T15:32:01;24.50;61.00
39067;DHT22;24821;51.988;6.020;2022-07-05T15:34:27;24.60;62.00
39067;DHT22;24821;51.988;6.020;2022-07-05T15:36:52;24.60;61.30
39067;DHT22;24821;51.988;6.020;2022-07-05T15:39:18;24.60;59.80
39067;DHT22;24821;51.988;6.020;2022-07-05T15:41:44;24.50;60.30
39067;DHT22;24821;51.988;6.020;2022-07-05T15:44:09;24.20;61.10
39067;DHT22;24821;51.988;6.020;2022-07-05T15:46:35;24.10;61.60
39067;DHT22;24821;51.988;6.020;2022-07-05T15:49:19;24.10;61.20
39067;DHT22;24821;51.988;6.020;2022-07-05T15:51:45;24.00;60.30
39067;DHT22;24821;51.988;6.020;2022-07-05T15:54:11;23.90;62.10